createdAt,value
2022-12-14T00:01:35.482Z,-2.98
2022-12-14T00:04:02.200Z,-2.98
2022-12-14T00:06:31.252Z,-2.99
2022-12-14T00:09:00.881Z,-3.03
2022-12-14T00:11:28.898Z,-3.06
2022-12-14T00:13:58.478Z,-3.04
2022-12-14T00:16:27.367Z,-3.04
2022-12-14T00:18:55.901Z,-3.02
2022-12-14T00:21:22.622Z,-2.99
2022-12-14T00:23:50.983Z,-2.97
2022-12-14T00:26:20.808Z,-2.95
2022-12-14T00:28:49.045Z,-2.94
2022-12-14T00:31:16.679Z,-3.02
2022-12-14T00:33:44.350Z,-3.05
2022-12-14T00:36:12.610Z,-3.07
2022-12-14T00:38:40.636Z,-3.08
2022-12-14T00:41:08.179Z,-3.08
2022-12-14T00:43:34.866Z,-3.03
2022-12-14T00:46:01.683Z,-3.05
2022-12-14T00:48:29.577Z,-3.09
2022-12-14T00:50:56.961Z,-3.10
2022-12-14T00:53:24.536Z,-3.06
2022-12-14T00:55:51.874Z,-3.07
2022-12-14T00:58:19.625Z,-3.12
2022-12-14T01:00:47.432Z,-3.09
2022-12-14T01:03:14.566Z,-3.14
2022-12-14T01:05:41.546Z,-3.18
2022-12-14T01:08:08.826Z,-3.18
2022-12-14T01:10:40.321Z,-3.19
2022-12-14T01:13:07.050Z,-3.30
2022-12-14T01:15:35.473Z,-3.31
2022-12-14T01:18:02.234Z,-3.40
2022-12-14T01:20:28.951Z,-3.40
2022-12-14T01:22:56.276Z,-3.42
2022-12-14T01:25:22.917Z,-3.52
2022-12-14T01:27:50.455Z,-3.51
2022-12-14T01:30:19.336Z,-3.52
2022-12-14T01:32:46.966Z,-3.51
2022-12-14T01:35:13.806Z,-3.49
2022-12-14T01:37:40.578Z,-3.48
2022-12-14T01:40:08.250Z,-3.49
2022-12-14T01:42:36.676Z,-3.51
2022-12-14T01:45:04.889Z,-3.51
2022-12-14T01:47:41.186Z,-3.43
2022-12-14T01:50:27.572Z,-3.46
2022-12-14T01:53:00.811Z,-3.45
2022-12-14T01:55:33.221Z,-3.54
2022-12-14T01:58:10.356Z,-3.57
2022-12-14T02:00:37.789Z,-3.55
2022-12-14T02:03:12.690Z,-3.49
2022-12-14T02:05:46.497Z,-3.66
2022-12-14T02:08:14.179Z,-3.45
2022-12-14T02:10:41.758Z,-3.49
2022-12-14T02:13:29.605Z,-3.40
2022-12-14T02:15:56.706Z,-3.40
2022-12-14T02:18:26.223Z,-3.35
2022-12-14T02:21:36.733Z,-3.43
2022-12-14T02:24:09.366Z,-3.45
2022-12-14T02:27:13.730Z,-3.52
2022-12-14T02:29:52.523Z,-3.57
2022-12-14T02:32:50.486Z,-3.57
2022-12-14T02:35:55.511Z,-3.55
2022-12-14T02:38:52.004Z,-3.54
2022-12-14T02:41:38.469Z,-3.59
2022-12-14T02:44:17.455Z,-3.58
2022-12-14T02:46:58.087Z,-3.55
2022-12-14T02:50:23.699Z,-3.64
2022-12-14T02:53:29.332Z,-3.67
2022-12-14T02:56:02.313Z,-3.68
2022-12-14T02:58:36.010Z,-3.63
2022-12-14T03:01:03.849Z,-3.55
2022-12-14T03:03:31.038Z,-3.56
2022-12-14T03:06:00.912Z,-3.52
2022-12-14T03:08:31.779Z,-3.49
2022-12-14T03:11:02.314Z,-3.47
2022-12-14T03:13:51.783Z,-3.42
2022-12-14T03:16:30.125Z,-3.45
2022-12-14T03:19:18.452Z,-3.48
2022-12-14T03:21:51.900Z,-3.56
2022-12-14T03:24:37.743Z,-3.54
2022-12-14T03:27:16.802Z,-3.55
2022-12-14T03:29:52.315Z,-3.57
2022-12-14T03:32:26.135Z,-3.61
2022-12-14T03:35:09.391Z,-3.62
2022-12-14T03:37:47.716Z,-3.63
2022-12-14T03:40:24.284Z,-3.60
2022-12-14T03:43:07.819Z,-3.62
2022-12-14T03:45:50.261Z,-3.68
2022-12-14T03:48:47.872Z,-3.68
2022-12-14T03:51:40.499Z,-3.70
2022-12-14T03:54:18.349Z,-3.68
2022-12-14T03:56:53.380Z,-3.66
2022-12-14T03:59:23.163Z,-3.65
2022-12-14T04:02:16.706Z,-3.62
2022-12-14T04:04:56.729Z,-3.61
2022-12-14T04:07:50.229Z,-3.62
2022-12-14T04:10:43.677Z,-3.62
2022-12-14T04:13:34.590Z,-3.60
2022-12-14T04:16:25.527Z,-3.70
2022-12-14T04:19:01.872Z,-3.79
2022-12-14T04:21:39.992Z,-3.76
2022-12-14T04:24:42.967Z,-3.74
2022-12-14T04:27:20.564Z,-3.79
2022-12-14T04:29:57.058Z,-3.85
2022-12-14T04:32:53.218Z,-3.82
2022-12-14T04:35:26.127Z,-3.77
2022-12-14T04:38:02.460Z,-3.80
2022-12-14T04:40:54.052Z,-3.85
2022-12-14T04:43:26.818Z,-3.89
2022-12-14T04:45:59.100Z,-3.90
2022-12-14T04:48:31.601Z,-3.95
2022-12-14T04:51:05.862Z,-4.00
2022-12-14T04:53:36.118Z,-4.05
2022-12-14T04:56:09.633Z,-4.02
2022-12-14T04:58:37.164Z,-3.97
2022-12-14T05:01:07.022Z,-4.03
2022-12-14T05:03:38.707Z,-4.05
2022-12-14T05:06:19.349Z,-4.07
2022-12-14T05:08:53.268Z,-4.09
2022-12-14T05:11:53.630Z,-4.10
2022-12-14T05:14:34.127Z,-4.13
2022-12-14T05:17:08.483Z,-4.09
2022-12-14T05:19:37.396Z,-4.03
2022-12-14T05:22:08.076Z,-4.07
2022-12-14T05:24:35.052Z,-4.07
2022-12-14T05:27:01.838Z,-4.05
2022-12-14T05:29:28.636Z,-4.11
2022-12-14T05:31:55.338Z,-4.13
2022-12-14T05:34:22.539Z,-4.07
2022-12-14T05:36:49.551Z,-4.02
2022-12-14T05:39:16.987Z,-4.07
2022-12-14T05:41:44.289Z,-3.97
2022-12-14T05:44:11.071Z,-3.91
2022-12-14T05:46:37.786Z,-3.87
2022-12-14T05:49:04.719Z,-3.86
2022-12-14T05:51:31.525Z,-3.93
2022-12-14T05:53:59.021Z,-3.94
2022-12-14T05:56:26.003Z,-3.87
2022-12-14T05:58:52.849Z,-3.87
2022-12-14T06:01:20.004Z,-3.82
2022-12-14T06:03:47.105Z,-3.84
2022-12-14T06:06:14.988Z,-3.82
2022-12-14T06:08:44.476Z,-3.91
2022-12-14T06:11:18.073Z,-3.97
2022-12-14T06:13:45.595Z,-3.98
2022-12-14T06:16:15.430Z,-3.99
2022-12-14T06:19:03.600Z,-4.01
2022-12-14T06:21:35.544Z,-4.00
2022-12-14T06:24:02.739Z,-4.02
2022-12-14T06:26:30.261Z,-4.07
2022-12-14T06:28:57.972Z,-4.05
2022-12-14T06:31:27.434Z,-4.09
2022-12-14T06:33:55.133Z,-4.02
2022-12-14T06:36:27.042Z,-3.97
2022-12-14T06:38:55.192Z,-4.03
2022-12-14T06:41:23.971Z,-3.99
2022-12-14T06:43:51.953Z,-3.94
2022-12-14T06:46:21.238Z,-3.93
2022-12-14T06:48:52.926Z,-3.91
2022-12-14T06:51:20.373Z,-3.92
2022-12-14T06:53:51.921Z,-3.96
2022-12-14T06:56:20.164Z,-3.96
2022-12-14T06:58:47.548Z,-3.94
2022-12-14T07:01:16.907Z,-3.92
2022-12-14T07:03:47.326Z,-3.91
2022-12-14T07:06:14.163Z,-3.89
2022-12-14T07:08:40.883Z,-3.88
2022-12-14T07:11:11.687Z,-3.95
2022-12-14T07:13:39.112Z,-3.97
2022-12-14T07:16:07.776Z,-3.96
2022-12-14T07:18:34.836Z,-3.96
2022-12-14T07:21:09.925Z,-3.96
2022-12-14T07:23:38.542Z,-3.91
2022-12-14T07:26:13.705Z,-3.87
2022-12-14T07:28:41.182Z,-3.94
2022-12-14T07:31:12.639Z,-3.96
2022-12-14T07:33:39.685Z,-4.01
2022-12-14T07:36:12.076Z,-4.14
2022-12-14T07:38:40.565Z,-4.16
2022-12-14T07:41:15.531Z,-4.21
2022-12-14T07:43:46.329Z,-4.17
2022-12-14T07:46:19.693Z,-4.10
2022-12-14T07:48:49.329Z,-4.13
2022-12-14T07:51:18.709Z,-4.12
2022-12-14T07:53:45.464Z,-4.13
2022-12-14T07:56:17.480Z,-4.02
2022-12-14T07:58:44.650Z,-4.02
2022-12-14T08:01:18.049Z,-3.94
2022-12-14T08:03:53.108Z,-3.85
2022-12-14T08:06:21.267Z,-3.80
2022-12-14T08:08:48.366Z,-3.71
2022-12-14T08:11:18.275Z,-3.62
2022-12-14T08:13:45.350Z,-3.54
2022-12-14T08:16:16.905Z,-3.51
2022-12-14T08:18:44.428Z,-3.44
2022-12-14T08:21:12.687Z,-3.43
2022-12-14T08:23:39.431Z,-3.34
2022-12-14T08:26:06.536Z,-3.33
2022-12-14T08:28:34.937Z,-3.31
2022-12-14T08:31:21.727Z,-3.21
2022-12-14T08:33:49.971Z,-3.06
2022-12-14T08:36:22.406Z,-2.99
2022-12-14T08:38:57.120Z,-2.83
2022-12-14T08:41:25.243Z,-2.73
2022-12-14T08:43:57.605Z,-2.71
2022-12-14T08:46:25.763Z,-2.73
2022-12-14T08:48:55.006Z,-2.86
2022-12-14T08:51:23.407Z,-2.82
2022-12-14T08:53:50.209Z,-2.91
2022-12-14T08:56:19.906Z,-2.97
2022-12-14T08:58:47.254Z,-3.15
2022-12-14T09:01:17.037Z,-3.29
2022-12-14T09:03:45.296Z,-3.35
2022-12-14T09:06:14.353Z,-3.31
2022-12-14T09:08:41.245Z,-3.29
2022-12-14T09:11:12.967Z,-3.31
2022-12-14T09:13:40.667Z,-3.32
2022-12-14T09:16:34.207Z,-3.37
2022-12-14T09:19:00.936Z,-3.24
2022-12-14T09:21:27.668Z,-3.38
2022-12-14T09:23:59.295Z,-3.23
2022-12-14T09:26:26.515Z,-3.12
2022-12-14T09:28:55.385Z,-2.93
2022-12-14T09:31:24.513Z,-2.95
2022-12-14T09:33:51.707Z,-2.67
2022-12-14T09:36:20.983Z,-2.69
2022-12-14T09:38:51.479Z,-2.61
2022-12-14T09:41:33.952Z,-2.71
2022-12-14T09:44:18.559Z,-2.64
2022-12-14T09:46:45.664Z,-2.55
2022-12-14T09:49:33.728Z,-2.47
2022-12-14T09:52:03.994Z,-2.60
2022-12-14T09:54:37.997Z,-2.54
2022-12-14T09:57:13.180Z,-2.58
2022-12-14T09:59:40.308Z,-2.31
2022-12-14T10:02:37.832Z,-2.43
2022-12-14T10:05:24.910Z,-2.32
2022-12-14T10:08:21.165Z,-1.97
2022-12-14T10:11:23.467Z,-2.13
2022-12-14T10:13:56.983Z,-1.64
2022-12-14T10:16:31.107Z,-1.67
2022-12-14T10:19:26.759Z,-1.73
2022-12-14T10:21:58.775Z,-1.53
2022-12-14T10:24:31.152Z,-1.18
2022-12-14T10:26:58.384Z,-1.05
2022-12-14T10:29:27.940Z,-0.73
2022-12-14T10:31:57.383Z,-0.59
2022-12-14T10:34:29.414Z,-0.24
2022-12-14T10:37:12.921Z,-0.16
2022-12-14T10:39:58.005Z,0.06
2022-12-14T10:42:36.371Z,0.07
2022-12-14T10:48:24.710Z,0.34
2022-12-14T10:51:07.252Z,0.21
2022-12-14T10:53:55.575Z,0.19
2022-12-14T10:56:33.214Z,-0.46
2022-12-14T10:59:18.347Z,-0.14
2022-12-14T11:01:46.850Z,0.25
2022-12-14T11:04:35.632Z,-0.22
2022-12-14T11:07:08.812Z,0.05
2022-12-14T11:09:37.313Z,0.64
2022-12-14T11:12:25.830Z,0.82
2022-12-14T11:14:58.503Z,0.71
2022-12-14T11:17:42.910Z,0.64
2022-12-14T11:20:09.905Z,0.76
2022-12-14T11:22:49.447Z,1.18
2022-12-14T11:25:36.623Z,1.70
2022-12-14T11:28:25.657Z,1.95
2022-12-14T11:31:00.770Z,2.18
2022-12-14T11:33:45.857Z,2.15
2022-12-14T11:36:36.822Z,2.21
2022-12-14T11:41:50.236Z,1.78
2022-12-14T11:44:16.874Z,1.79
2022-12-14T11:46:55.308Z,1.52
2022-12-14T11:49:40.416Z,1.25
2022-12-14T11:52:13.099Z,1.36
2022-12-14T11:54:54.343Z,1.45
2022-12-14T11:57:41.261Z,1.57
2022-12-14T12:00:28.524Z,1.72
2022-12-14T12:03:20.331Z,1.73
2022-12-14T12:05:48.826Z,1.58
2022-12-14T12:08:23.585Z,1.51
2022-12-14T12:10:53.114Z,1.48
2022-12-14T12:13:31.701Z,1.46
2022-12-14T12:16:04.836Z,1.42
2022-12-14T12:18:45.815Z,1.43
2022-12-14T12:21:18.347Z,1.38
2022-12-14T12:23:50.712Z,1.41
2022-12-14T12:26:27.924Z,1.52
2022-12-14T12:29:11.138Z,1.60
2022-12-14T12:31:48.862Z,1.86
2022-12-14T12:34:23.017Z,1.94
2022-12-14T12:37:17.437Z,1.96
2022-12-14T12:39:40.423Z,1.80
2022-12-14T12:42:22.219Z,1.75
2022-12-14T12:45:16.699Z,1.55
2022-12-14T12:47:49.916Z,1.32
2022-12-14T12:50:21.671Z,1.29
2022-12-14T12:53:03.751Z,1.16
2022-12-14T12:55:38.258Z,0.60
2022-12-14T12:58:10.184Z,0.29
2022-12-14T13:00:38.309Z,0.33
2022-12-14T13:03:25.075Z,0.28
2022-12-14T13:05:55.199Z,0.39
2022-12-14T13:08:34.784Z,0.37
2022-12-14T13:11:26.277Z,0.37
2022-12-14T13:13:59.575Z,0.32
2022-12-14T13:16:38.238Z,0.29
2022-12-14T13:19:50.750Z,0.26
2022-12-14T13:22:27.994Z,0.16
2022-12-14T13:24:59.831Z,0.14
2022-12-14T13:27:56.997Z,0.14
2022-12-14T13:30:29.775Z,0.14
2022-12-14T13:33:08.371Z,0.11
2022-12-14T13:35:56.637Z,0.01
2022-12-14T13:38:57.810Z,-0.12
2022-12-14T13:41:47.512Z,-0.17
2022-12-14T13:44:43.748Z,-0.17
2022-12-14T13:47:17.651Z,-0.33
2022-12-14T13:50:26.394Z,-0.33
2022-12-14T13:52:44.169Z,-0.36
2022-12-14T13:55:25.349Z,-0.44
2022-12-14T13:57:53.363Z,-0.51
2022-12-14T14:00:46.616Z,-0.54
2022-12-14T14:03:35.054Z,-0.65
2022-12-14T14:06:22.723Z,-0.73
2022-12-14T14:08:52.187Z,-0.79
2022-12-14T14:14:44.064Z,-0.81
2022-12-14T14:17:25.377Z,-0.83
2022-12-14T14:19:57.423Z,-0.91
2022-12-14T14:22:27.624Z,-0.86
2022-12-14T14:25:01.942Z,-0.91
2022-12-14T14:27:41.838Z,-0.94
2022-12-14T14:30:33.263Z,-0.91
2022-12-14T14:33:35.787Z,-0.95
2022-12-14T14:35:49.657Z,-0.88
2022-12-14T14:38:32.292Z,-0.98
2022-12-14T14:41:17.124Z,-1.08
2022-12-14T14:43:52.492Z,-1.14
2022-12-14T14:46:34.236Z,-1.15
2022-12-14T14:49:01.292Z,-1.16
2022-12-14T14:51:30.849Z,-1.13
2022-12-14T14:54:36.939Z,-1.14
2022-12-14T14:57:03.179Z,-1.14
2022-12-14T14:59:43.401Z,-1.17
2022-12-14T15:02:28.573Z,-1.19
2022-12-14T15:04:57.079Z,-1.27
2022-12-14T15:07:29.646Z,-1.27
2022-12-14T15:10:22.340Z,-1.34
2022-12-14T15:12:53.040Z,-1.37
2022-12-14T15:15:24.645Z,-1.43
2022-12-14T15:17:51.353Z,-1.53
2022-12-14T15:20:29.635Z,-1.55
2022-12-14T15:22:56.883Z,-1.67
2022-12-14T15:25:25.898Z,-1.67
2022-12-14T15:27:54.087Z,-1.69
2022-12-14T15:30:23.723Z,-1.75
2022-12-14T15:33:10.328Z,-1.79
2022-12-14T15:35:40.607Z,-1.84
2022-12-14T15:38:16.366Z,-1.90
2022-12-14T15:41:00.718Z,-1.97
2022-12-14T15:43:28.609Z,-1.95
2022-12-14T15:46:04.232Z,-1.98
2022-12-14T15:48:35.089Z,-2.02
2022-12-14T15:51:03.893Z,-2.04
2022-12-14T15:53:31.776Z,-2.07
2022-12-14T15:56:23.730Z,-2.14
2022-12-14T15:58:51.699Z,-2.12
2022-12-14T16:01:37.947Z,-2.18
2022-12-14T16:04:09.950Z,-2.24
2022-12-14T16:06:40.753Z,-2.27
2022-12-14T16:09:39.084Z,-2.30
2022-12-14T16:12:09.420Z,-2.36
2022-12-14T16:14:47.110Z,-2.35
2022-12-14T16:17:20.642Z,-2.37
2022-12-14T16:20:00.529Z,-2.43
2022-12-14T16:22:33.003Z,-2.56
2022-12-14T16:25:02.070Z,-2.50
2022-12-14T16:27:30.393Z,-2.52
2022-12-14T16:30:19.255Z,-2.56
2022-12-14T16:32:48.024Z,-2.59
2022-12-14T16:35:27.237Z,-2.63
2022-12-14T16:37:55.813Z,-2.61
2022-12-14T16:40:37.630Z,-2.62
2022-12-14T16:43:06.732Z,-2.66
2022-12-14T16:45:36.674Z,-2.68
2022-12-14T16:48:13.359Z,-2.74
2022-12-14T16:50:56.342Z,-2.74
2022-12-14T16:53:31.339Z,-2.83
2022-12-14T16:56:21.400Z,-2.85
2022-12-14T16:59:19.203Z,-2.87
2022-12-14T17:01:47.378Z,-2.85
2022-12-14T17:04:19.044Z,-2.83
2022-12-14T17:06:51.835Z,-2.85
2022-12-14T17:09:26.235Z,-2.93
2022-12-14T17:11:55.839Z,-3.03
2022-12-14T17:14:22.565Z,-3.14
2022-12-14T17:16:56.155Z,-3.20
2022-12-14T17:19:50.171Z,-3.28
2022-12-14T17:22:23.681Z,-3.35
2022-12-14T17:24:51.358Z,-3.32
2022-12-14T17:27:22.152Z,-3.34
2022-12-14T17:29:49.692Z,-3.38
2022-12-14T17:32:18.306Z,-3.47
2022-12-14T17:34:46.532Z,-3.55
2022-12-14T17:37:20.459Z,-3.52
2022-12-14T17:39:48.175Z,-3.58
2022-12-14T17:42:20.618Z,-3.57
2022-12-14T17:44:59.587Z,-3.58
2022-12-14T17:47:26.875Z,-3.60
2022-12-14T17:49:55.580Z,-3.51
2022-12-14T17:52:29.443Z,-3.45
2022-12-14T17:54:56.331Z,-3.39
2022-12-14T17:57:25.242Z,-3.33
2022-12-14T18:00:12.018Z,-3.31
2022-12-14T18:02:40.804Z,-3.31
2022-12-14T18:05:18.830Z,-3.28
2022-12-14T18:07:47.085Z,-3.25
2022-12-14T18:10:18.531Z,-3.22
2022-12-14T18:12:46.213Z,-3.18
2022-12-14T18:15:36.949Z,-3.23
2022-12-14T18:18:07.021Z,-3.15
2022-12-14T18:20:35.185Z,-3.12
2022-12-14T18:23:02.732Z,-3.05
2022-12-14T18:25:34.546Z,-2.98
2022-12-14T18:28:04.835Z,-2.93
2022-12-14T18:30:40.710Z,-2.97
2022-12-14T18:33:21.244Z,-2.99
2022-12-14T18:35:51.736Z,-3.00
2022-12-14T18:38:20.762Z,-3.05
2022-12-14T18:40:50.165Z,-3.04
2022-12-14T18:43:19.793Z,-3.03
2022-12-14T18:45:46.730Z,-2.98
2022-12-14T18:48:13.419Z,-2.97
2022-12-14T18:50:43.148Z,-2.96
2022-12-14T18:53:17.437Z,-3.01
2022-12-14T18:55:44.735Z,-2.97
2022-12-14T18:58:17.375Z,-3.00
2022-12-14T19:00:45.288Z,-3.01
2022-12-14T19:03:12.156Z,-3.00
2022-12-14T19:05:39.561Z,-3.00
2022-12-14T19:08:09.797Z,-3.04
2022-12-14T19:10:40.318Z,-3.04
2022-12-14T19:13:11.862Z,-3.03
2022-12-14T19:15:41.072Z,-3.07
2022-12-14T19:18:09.530Z,-3.09
2022-12-14T19:20:38.044Z,-3.03
2022-12-14T19:23:06.407Z,-3.04
2022-12-14T19:25:33.626Z,-3.04
2022-12-14T19:30:49.852Z,-3.12
2022-12-14T19:33:16.591Z,-3.16
2022-12-14T19:35:43.599Z,-3.18
2022-12-14T19:38:14.595Z,-3.21
2022-12-14T19:40:43.179Z,-3.29
2022-12-14T19:43:09.868Z,-3.33
2022-12-14T19:45:39.567Z,-3.33
2022-12-14T19:48:12.746Z,-3.41
2022-12-14T19:50:40.025Z,-3.46
2022-12-14T19:53:06.859Z,-3.45
2022-12-14T19:55:34.678Z,-3.51
2022-12-14T19:58:01.395Z,-3.52
2022-12-14T20:00:28.221Z,-3.49
2022-12-14T20:02:55.096Z,-3.50
2022-12-14T20:05:22.006Z,-3.53
2022-12-14T20:07:48.702Z,-3.57
2022-12-14T20:10:17.766Z,-3.55
2022-12-14T20:12:44.450Z,-3.57
2022-12-14T20:15:11.208Z,-3.67
2022-12-14T20:17:37.993Z,-3.71
2022-12-14T20:20:05.217Z,-3.72
2022-12-14T20:22:31.782Z,-3.71
2022-12-14T20:24:59.746Z,-3.78
2022-12-14T20:27:26.877Z,-3.79
2022-12-14T20:29:59.430Z,-3.83
2022-12-14T20:32:28.602Z,-3.80
2022-12-14T20:34:57.804Z,-3.83
2022-12-14T20:37:27.356Z,-3.85
2022-12-14T20:39:54.900Z,-3.86
2022-12-14T20:42:22.043Z,-3.83
2022-12-14T20:44:49.410Z,-3.88
2022-12-14T20:47:17.769Z,-3.89
2022-12-14T20:49:46.514Z,-3.92
2022-12-14T20:52:14.178Z,-3.98
2022-12-14T20:54:41.471Z,-4.05
2022-12-14T20:57:09.708Z,-4.09
2022-12-14T20:59:37.412Z,-4.12
2022-12-14T21:02:04.763Z,-4.10
2022-12-14T21:04:32.189Z,-4.16
2022-12-14T21:06:59.490Z,-4.19
2022-12-14T21:09:26.958Z,-4.20
2022-12-14T21:12:12.421Z,-4.24
2022-12-14T21:14:48.089Z,-4.26
2022-12-14T21:17:15.761Z,-4.32
2022-12-14T21:19:42.836Z,-4.24
2022-12-14T21:22:14.243Z,-4.21
2022-12-14T21:27:30.509Z,-4.28
2022-12-14T21:29:58.092Z,-4.32
2022-12-14T21:32:25.464Z,-4.38
2022-12-14T21:34:52.557Z,-4.37
2022-12-14T21:37:20.458Z,-4.34
2022-12-14T21:39:54.368Z,-4.37
2022-12-14T21:42:26.154Z,-4.38
2022-12-14T21:44:54.085Z,-4.40
2022-12-14T21:47:24.295Z,-4.44
2022-12-14T21:49:51.573Z,-4.50
2022-12-14T21:52:21.779Z,-4.49
2022-12-14T21:54:48.733Z,-4.47
2022-12-14T21:57:40.208Z,-4.48
2022-12-14T22:00:09.032Z,-4.47
2022-12-14T22:02:42.127Z,-4.48
2022-12-14T22:05:10.430Z,-4.49
2022-12-14T22:07:37.150Z,-4.55
2022-12-14T22:10:04.205Z,-4.59
2022-12-14T22:12:31.078Z,-4.74
2022-12-14T22:14:57.840Z,-4.60
2022-12-14T22:17:24.562Z,-4.63
2022-12-14T22:19:52.202Z,-4.57
2022-12-14T22:22:18.915Z,-4.58
2022-12-14T22:24:48.651Z,-4.60
2022-12-14T22:27:15.371Z,-4.67
2022-12-14T22:29:42.080Z,-4.78
2022-12-14T22:32:11.256Z,-4.90
2022-12-14T22:34:38.125Z,-4.91
2022-12-14T22:37:04.815Z,-4.96
2022-12-14T22:39:31.582Z,-4.93
2022-12-14T22:41:58.368Z,-4.97
2022-12-14T22:44:25.060Z,-4.97
2022-12-14T22:46:51.772Z,-4.94
2022-12-14T22:49:20.141Z,-4.93
2022-12-14T22:51:46.873Z,-4.96
2022-12-14T22:54:22.406Z,-4.96
2022-12-14T22:56:55.196Z,-5.01
2022-12-14T22:59:32.581Z,-4.96
2022-12-14T23:01:59.732Z,-4.98
2022-12-14T23:04:26.765Z,-4.98
2022-12-14T23:06:54.781Z,-5.01
2022-12-14T23:09:40.263Z,-4.94
2022-12-14T23:12:26.185Z,-4.90
2022-12-14T23:15:11.485Z,-4.93
2022-12-14T23:17:56.867Z,-4.83
2022-12-14T23:20:42.354Z,-4.91
2022-12-14T23:23:28.673Z,-4.88
2022-12-14T23:26:14.523Z,-4.94
2022-12-14T23:29:00.009Z,-4.91
2022-12-14T23:31:45.623Z,-4.92
2022-12-14T23:34:30.819Z,-4.94
2022-12-14T23:37:20.098Z,-4.88
2022-12-14T23:40:06.483Z,-4.88
2022-12-14T23:42:51.919Z,-4.87
2022-12-14T23:45:37.195Z,-4.88
2022-12-14T23:48:22.342Z,-4.84
2022-12-14T23:51:07.505Z,-4.76
2022-12-14T23:53:52.943Z,-4.71
2022-12-14T23:56:38.237Z,-4.70
2022-12-14T23:59:27.926Z,-4.68
